createdAt,value
2022-10-20T00:01:55.072Z,12.00
2022-10-20T00:04:22.154Z,12.00
2022-10-20T00:06:49.158Z,12.10
2022-10-20T00:09:16.277Z,12.10
2022-10-20T00:11:43.390Z,12.10
2022-10-20T00:14:10.417Z,12.10
2022-10-20T00:16:37.831Z,12.10
2022-10-20T00:19:04.836Z,12.10
2022-10-20T00:21:31.854Z,12.20
2022-10-20T00:23:59.314Z,12.20
2022-10-20T00:26:26.649Z,12.10
2022-10-20T00:28:54.405Z,12.10
2022-10-20T00:31:21.674Z,12.10
2022-10-20T00:33:48.717Z,12.10
2022-10-20T00:36:16.429Z,12.20
2022-10-20T00:38:43.435Z,12.20
2022-10-20T00:41:12.303Z,12.20
2022-10-20T00:43:49.923Z,12.20
2022-10-20T00:46:21.078Z,12.30
2022-10-20T00:48:49.274Z,12.20
2022-10-20T00:51:16.694Z,12.20
2022-10-20T00:53:44.431Z,12.20
2022-10-20T00:56:11.541Z,12.20
2022-10-20T00:58:38.604Z,12.20
2022-10-20T01:01:05.695Z,12.30
2022-10-20T01:03:49.520Z,12.30
2022-10-20T01:08:44.489Z,12.20
2022-10-20T01:11:18.782Z,12.20
2022-10-20T01:13:55.165Z,12.20
2022-10-20T01:16:25.640Z,12.20
2022-10-20T01:19:18.436Z,12.20
2022-10-20T01:21:54.529Z,12.20
2022-10-20T01:24:32.536Z,12.20
2022-10-20T01:27:12.895Z,12.20
2022-10-20T01:29:44.240Z,12.20
2022-10-20T01:32:22.344Z,12.20
2022-10-20T01:35:10.182Z,12.20
2022-10-20T01:37:52.574Z,12.20
2022-10-20T01:40:29.869Z,12.20
2022-10-20T01:42:58.110Z,12.20
2022-10-20T01:45:25.622Z,12.20
2022-10-20T01:47:52.711Z,12.20
2022-10-20T01:50:20.167Z,12.20
2022-10-20T01:52:47.546Z,12.20
2022-10-20T01:55:15.691Z,12.20
2022-10-20T01:57:42.747Z,12.10
2022-10-20T02:00:09.908Z,12.10
2022-10-20T02:02:55.717Z,12.00
2022-10-20T02:05:32.417Z,12.10
2022-10-20T02:08:00.714Z,12.10
2022-10-20T02:10:29.378Z,12.10
2022-10-20T02:12:57.321Z,12.20
2022-10-20T02:15:25.364Z,12.10
2022-10-20T02:17:53.382Z,12.20
2022-10-20T02:20:20.447Z,12.10
2022-10-20T02:22:47.656Z,12.10
2022-10-20T02:25:14.727Z,12.10
2022-10-20T02:27:42.692Z,12.10
2022-10-20T02:30:10.652Z,12.10
2022-10-20T02:32:38.783Z,12.00
2022-10-20T02:35:07.082Z,12.00
2022-10-20T02:37:34.434Z,12.00
2022-10-20T02:40:01.976Z,12.00
2022-10-20T02:42:28.998Z,12.00
2022-10-20T02:44:55.997Z,12.00
2022-10-20T02:47:23.034Z,12.00
2022-10-20T02:49:50.029Z,12.00
2022-10-20T02:52:17.033Z,12.00
2022-10-20T02:54:44.029Z,12.00
2022-10-20T02:57:11.097Z,12.00
2022-10-20T02:59:38.112Z,12.00
2022-10-20T03:02:05.180Z,11.90
2022-10-20T03:04:32.230Z,11.90
2022-10-20T03:06:59.239Z,12.00
2022-10-20T03:09:26.558Z,11.90
2022-10-20T03:11:53.588Z,11.90
2022-10-20T03:14:20.597Z,11.80
2022-10-20T03:16:47.611Z,11.70
2022-10-20T03:19:14.657Z,11.70
2022-10-20T03:21:41.712Z,11.70
2022-10-20T03:24:08.750Z,11.70
2022-10-20T03:26:35.769Z,11.70
2022-10-20T03:29:02.814Z,11.70
2022-10-20T03:31:29.895Z,11.80
2022-10-20T03:33:56.960Z,11.80
2022-10-20T03:36:24.057Z,11.70
2022-10-20T03:38:51.076Z,11.80
2022-10-20T03:41:18.098Z,11.80
2022-10-20T03:43:45.102Z,11.80
2022-10-20T03:46:12.173Z,11.80
2022-10-20T03:48:39.430Z,11.80
2022-10-20T03:51:06.465Z,11.70
2022-10-20T03:53:33.560Z,11.70
2022-10-20T03:56:05.023Z,11.70
2022-10-20T03:58:32.039Z,11.70
2022-10-20T04:00:59.051Z,11.70
2022-10-20T04:03:26.070Z,11.60
2022-10-20T04:05:53.070Z,11.70
2022-10-20T04:08:20.079Z,11.70
2022-10-20T04:10:47.076Z,11.70
2022-10-20T04:13:14.099Z,11.70
2022-10-20T04:15:41.110Z,11.80
2022-10-20T04:18:08.211Z,11.80
2022-10-20T04:20:36.043Z,11.80
2022-10-20T04:23:04.479Z,11.80
2022-10-20T04:25:31.565Z,11.80
2022-10-20T04:27:59.103Z,11.70
2022-10-20T04:30:26.323Z,11.70
2022-10-20T04:32:53.341Z,11.70
2022-10-20T04:35:20.352Z,11.70
2022-10-20T04:37:47.364Z,11.70
2022-10-20T04:40:14.398Z,11.70
2022-10-20T04:42:41.419Z,11.70
2022-10-20T04:45:08.698Z,11.70
2022-10-20T04:47:37.805Z,11.70
2022-10-20T04:50:05.786Z,11.70
2022-10-20T04:52:32.793Z,11.70
2022-10-20T04:54:59.835Z,11.70
2022-10-20T04:57:26.949Z,11.70
2022-10-20T04:59:53.961Z,11.70
2022-10-20T05:02:20.941Z,11.70
2022-10-20T05:04:47.934Z,11.70
2022-10-20T05:07:14.960Z,11.70
2022-10-20T05:09:42.045Z,11.70
2022-10-20T05:12:09.092Z,11.70
2022-10-20T05:14:36.122Z,11.70
2022-10-20T05:17:05.247Z,11.60
2022-10-20T05:19:34.917Z,11.60
2022-10-20T05:22:02.943Z,11.60
2022-10-20T05:24:30.221Z,11.60
2022-10-20T05:26:57.368Z,11.60
2022-10-20T05:29:24.402Z,11.60
2022-10-20T05:31:51.461Z,11.60
2022-10-20T05:34:18.575Z,11.70
2022-10-20T05:36:45.609Z,11.70
2022-10-20T05:39:12.818Z,11.60
2022-10-20T05:41:39.854Z,11.40
2022-10-20T05:44:08.490Z,11.40
2022-10-20T05:46:37.874Z,11.40
2022-10-20T05:49:04.917Z,11.50
2022-10-20T05:51:33.621Z,11.40
2022-10-20T05:54:00.672Z,11.30
2022-10-20T05:56:28.103Z,11.30
2022-10-20T05:58:55.121Z,11.30
2022-10-20T06:01:26.776Z,11.40
2022-10-20T06:03:54.718Z,11.40
2022-10-20T06:06:22.712Z,11.40
2022-10-20T06:08:50.846Z,11.50
2022-10-20T06:11:18.102Z,11.50
2022-10-20T06:13:47.237Z,11.40
2022-10-20T06:16:17.841Z,11.40
2022-10-20T06:18:44.858Z,11.30
2022-10-20T06:21:12.705Z,11.40
2022-10-20T06:23:39.720Z,11.30
2022-10-20T06:26:13.695Z,11.30
2022-10-20T06:28:40.838Z,11.30
2022-10-20T06:31:13.923Z,11.30
2022-10-20T06:33:41.042Z,11.30
2022-10-20T06:36:08.363Z,11.20
2022-10-20T06:38:35.593Z,11.20
2022-10-20T06:41:03.121Z,11.20
2022-10-20T06:43:30.246Z,11.30
2022-10-20T06:46:01.099Z,11.30
2022-10-20T06:48:28.138Z,11.30
2022-10-20T06:50:58.622Z,11.40
2022-10-20T06:53:25.899Z,11.40
2022-10-20T06:56:11.759Z,11.50
2022-10-20T06:58:39.355Z,11.60
2022-10-20T07:01:14.607Z,11.60
2022-10-20T07:03:41.779Z,11.70
2022-10-20T07:06:08.894Z,11.80
2022-10-20T07:08:36.222Z,11.80
2022-10-20T07:11:15.307Z,11.80
2022-10-20T07:13:42.871Z,11.80
2022-10-20T07:16:12.251Z,11.80
2022-10-20T07:18:39.347Z,11.80
2022-10-20T07:21:07.332Z,11.80
2022-10-20T07:23:34.474Z,11.80
2022-10-20T07:26:01.494Z,11.80
2022-10-20T07:28:28.743Z,11.80
2022-10-20T07:30:55.862Z,11.90
2022-10-20T07:33:22.891Z,11.80
2022-10-20T07:35:50.078Z,11.90
2022-10-20T07:38:17.093Z,12.00
2022-10-20T07:40:44.098Z,12.00
2022-10-20T07:43:11.126Z,12.10
2022-10-20T07:45:38.140Z,12.20
2022-10-20T07:48:07.130Z,12.30
2022-10-20T07:50:34.174Z,12.40
2022-10-20T07:53:01.219Z,12.40
2022-10-20T07:55:43.507Z,12.30
2022-10-20T07:58:10.551Z,12.20
2022-10-20T08:00:37.731Z,12.10
2022-10-20T08:03:04.772Z,12.10
2022-10-20T08:05:31.798Z,12.00
2022-10-20T08:08:00.503Z,12.10
2022-10-20T08:10:27.559Z,12.30
2022-10-20T08:12:54.565Z,12.40
2022-10-20T08:15:21.597Z,12.40
2022-10-20T08:17:48.608Z,12.50
2022-10-20T08:20:20.361Z,12.50
2022-10-20T08:22:49.458Z,12.60
2022-10-20T08:25:16.699Z,12.70
2022-10-20T08:27:43.690Z,12.80
2022-10-20T08:30:24.756Z,12.80
2022-10-20T08:32:52.770Z,12.80
2022-10-20T08:35:20.225Z,12.80
2022-10-20T08:37:47.261Z,12.90
2022-10-20T08:40:18.749Z,12.90
2022-10-20T08:42:45.783Z,13.00
2022-10-20T08:45:16.967Z,13.00
2022-10-20T08:47:44.072Z,13.10
2022-10-20T08:50:12.416Z,13.30
2022-10-20T08:52:43.155Z,13.40
2022-10-20T08:57:49.278Z,13.50
2022-10-20T09:00:20.304Z,13.50
2022-10-20T09:02:47.867Z,13.40
2022-10-20T09:05:18.337Z,13.50
2022-10-20T09:07:49.654Z,13.40
2022-10-20T09:10:16.680Z,13.50
2022-10-20T09:12:44.586Z,13.10
2022-10-20T09:15:11.733Z,13.10
2022-10-20T09:17:43.043Z,13.00
2022-10-20T09:20:15.810Z,13.20
2022-10-20T09:22:42.826Z,13.50
2022-10-20T09:25:13.194Z,13.60
2022-10-20T09:27:42.809Z,13.80
2022-10-20T09:30:13.799Z,14.00
2022-10-20T09:32:46.551Z,14.10
2022-10-20T09:35:23.731Z,14.30
2022-10-20T09:38:01.805Z,14.40
2022-10-20T09:40:28.956Z,14.50
2022-10-20T09:42:57.075Z,14.50
2022-10-20T09:45:28.411Z,14.60
2022-10-20T09:47:58.612Z,14.70
2022-10-20T09:50:46.003Z,14.50
2022-10-20T09:53:17.904Z,14.50
2022-10-20T09:55:48.706Z,14.40
2022-10-20T09:58:42.641Z,14.30
2022-10-20T10:01:13.338Z,14.40
2022-10-20T10:03:41.147Z,14.40
2022-10-20T10:06:26.551Z,14.50
2022-10-20T10:08:53.998Z,14.50
2022-10-20T10:11:21.918Z,14.60
2022-10-20T10:13:49.769Z,14.70
2022-10-20T10:16:18.030Z,14.80
2022-10-20T10:18:48.494Z,14.70
2022-10-20T10:21:17.531Z,14.80
2022-10-20T10:23:51.887Z,14.80
2022-10-20T10:26:34.219Z,14.80
2022-10-20T10:29:01.230Z,14.80
2022-10-20T10:31:28.330Z,14.70
2022-10-20T10:34:13.800Z,14.70
2022-10-20T10:36:40.876Z,14.90
2022-10-20T10:39:11.035Z,15.00
2022-10-20T10:41:47.196Z,15.30
2022-10-20T10:44:21.063Z,15.50
2022-10-20T10:47:00.757Z,15.60
2022-10-20T10:49:27.766Z,15.80
2022-10-20T10:52:01.034Z,15.90
2022-10-20T10:54:31.634Z,16.00
2022-10-20T10:57:17.509Z,15.80
2022-10-20T10:59:44.828Z,15.80
2022-10-20T11:02:23.972Z,15.70
2022-10-20T11:05:00.142Z,15.70
2022-10-20T11:07:42.428Z,15.80
2022-10-20T11:10:14.835Z,15.90
2022-10-20T11:12:47.990Z,15.90
2022-10-20T11:15:22.109Z,16.00
2022-10-20T11:17:49.154Z,16.00
2022-10-20T11:20:19.361Z,16.10
2022-10-20T11:23:01.525Z,16.20
2022-10-20T11:25:42.523Z,16.20
2022-10-20T11:28:22.110Z,16.40
2022-10-20T11:30:49.119Z,16.50
2022-10-20T11:33:20.594Z,16.70
2022-10-20T11:35:57.478Z,16.70
2022-10-20T11:38:24.974Z,16.90
2022-10-20T11:41:13.042Z,16.90
2022-10-20T11:43:45.782Z,17.10
2022-10-20T11:46:13.340Z,17.20
2022-10-20T11:48:41.894Z,17.30
2022-10-20T11:51:08.919Z,17.40
2022-10-20T11:53:45.281Z,17.40
2022-10-20T11:56:12.291Z,17.50
2022-10-20T11:58:58.076Z,17.50
2022-10-20T12:01:38.385Z,17.50
2022-10-20T12:04:11.594Z,17.50
2022-10-20T12:06:44.888Z,17.40
2022-10-20T12:09:12.017Z,17.50
2022-10-20T12:11:41.706Z,17.50
2022-10-20T12:14:14.842Z,17.60
2022-10-20T12:16:54.219Z,17.70
2022-10-20T12:19:25.208Z,17.90
2022-10-20T12:22:02.178Z,18.10
2022-10-20T12:24:30.156Z,18.20
2022-10-20T12:27:19.013Z,18.10
2022-10-20T12:29:56.179Z,18.20
2022-10-20T12:32:42.806Z,18.20
2022-10-20T12:35:09.859Z,18.20
2022-10-20T12:37:37.307Z,18.30
2022-10-20T12:40:07.532Z,18.00
2022-10-20T12:42:38.181Z,17.90
2022-10-20T12:45:20.623Z,18.10
2022-10-20T12:47:48.342Z,18.20
2022-10-20T12:50:27.695Z,18.30
2022-10-20T12:52:54.720Z,18.40
2022-10-20T12:55:31.562Z,18.30
2022-10-20T12:58:11.586Z,18.50
2022-10-20T13:00:38.632Z,18.50
2022-10-20T13:03:26.239Z,18.50
2022-10-20T13:05:53.454Z,18.60
2022-10-20T13:08:20.498Z,18.50
2022-10-20T13:10:47.552Z,18.50
2022-10-20T13:13:17.588Z,18.30
2022-10-20T13:15:44.606Z,18.40
2022-10-20T13:18:11.717Z,18.40
2022-10-20T13:20:38.739Z,18.40
2022-10-20T13:23:05.773Z,18.40
2022-10-20T13:25:40.023Z,18.50
2022-10-20T13:28:13.153Z,18.60
2022-10-20T13:30:52.397Z,18.60
2022-10-20T13:33:51.121Z,18.10
2022-10-20T13:36:29.511Z,18.20
2022-10-20T13:39:04.811Z,18.20
2022-10-20T13:41:34.858Z,18.10
2022-10-20T13:44:11.708Z,18.00
2022-10-20T13:46:43.956Z,17.90
2022-10-20T13:49:20.233Z,17.80
2022-10-20T13:51:47.853Z,17.70
2022-10-20T13:54:20.019Z,17.70
2022-10-20T13:56:47.246Z,17.70
2022-10-20T13:59:14.302Z,17.70
2022-10-20T14:01:44.944Z,17.60
2022-10-20T14:04:31.821Z,17.50
2022-10-20T14:07:02.807Z,17.60
2022-10-20T14:09:29.910Z,17.50
2022-10-20T14:12:01.174Z,17.50
2022-10-20T14:14:28.806Z,17.60
2022-10-20T14:17:02.719Z,17.50
2022-10-20T14:19:30.586Z,17.50
2022-10-20T14:22:16.048Z,17.40
2022-10-20T14:24:44.233Z,17.30
2022-10-20T14:27:15.990Z,17.10
2022-10-20T14:29:42.998Z,17.10
2022-10-20T14:32:11.082Z,17.00
2022-10-20T14:34:41.987Z,16.80
2022-10-20T14:37:18.101Z,16.80
2022-10-20T14:39:49.519Z,16.70
2022-10-20T14:42:21.936Z,16.60
2022-10-20T14:44:49.390Z,16.70
2022-10-20T14:47:16.420Z,16.60
2022-10-20T14:49:43.471Z,16.50
2022-10-20T14:52:20.343Z,16.40
2022-10-20T14:54:49.102Z,16.40
2022-10-20T14:57:16.117Z,16.50
2022-10-20T14:59:50.056Z,16.50
2022-10-20T15:02:19.207Z,16.60
2022-10-20T15:04:46.822Z,16.60
2022-10-20T15:07:13.822Z,16.60
2022-10-20T15:09:42.077Z,16.70
2022-10-20T15:12:28.368Z,16.70
2022-10-20T15:15:02.911Z,16.70
2022-10-20T15:17:37.766Z,16.50
2022-10-20T15:20:23.813Z,16.40
2022-10-20T15:22:53.403Z,16.30
2022-10-20T15:25:22.711Z,16.40
2022-10-20T15:27:49.762Z,16.40
2022-10-20T15:30:17.497Z,16.30
2022-10-20T15:32:44.542Z,16.30
2022-10-20T15:35:12.291Z,16.20
2022-10-20T15:37:39.336Z,16.20
2022-10-20T15:40:06.522Z,16.20
2022-10-20T15:42:33.709Z,16.20
2022-10-20T15:45:00.794Z,16.00
2022-10-20T15:47:27.893Z,15.90
2022-10-20T15:49:54.948Z,15.80
2022-10-20T15:52:22.142Z,15.80
2022-10-20T15:54:49.168Z,15.70
2022-10-20T15:57:16.218Z,15.70
2022-10-20T15:59:43.254Z,15.60
2022-10-20T16:02:11.531Z,15.60
2022-10-20T16:04:38.570Z,15.50
2022-10-20T16:07:05.621Z,15.40
2022-10-20T16:09:32.699Z,15.40
2022-10-20T16:11:59.719Z,15.30
2022-10-20T16:14:26.870Z,15.30
2022-10-20T16:16:53.887Z,15.30
2022-10-20T16:19:20.923Z,15.30
2022-10-20T16:21:47.942Z,15.20
2022-10-20T16:24:14.975Z,15.20
2022-10-20T16:26:41.968Z,15.20
2022-10-20T16:29:08.993Z,15.10
2022-10-20T16:31:36.003Z,15.10
2022-10-20T16:34:03.095Z,15.10
2022-10-20T16:36:30.128Z,15.00
2022-10-20T16:38:57.400Z,15.00
2022-10-20T16:41:24.433Z,15.00
2022-10-20T16:43:51.428Z,15.00
2022-10-20T16:46:18.446Z,15.00
2022-10-20T16:48:47.988Z,14.80
2022-10-20T16:51:15.551Z,14.80
2022-10-20T16:53:42.686Z,14.70
2022-10-20T16:56:09.712Z,14.70
2022-10-20T16:58:36.773Z,14.60
2022-10-20T17:01:06.166Z,14.60
2022-10-20T17:03:35.369Z,14.50
2022-10-20T17:06:03.222Z,14.50
2022-10-20T17:08:31.890Z,14.40
2022-10-20T17:10:59.420Z,14.40
2022-10-20T17:13:26.554Z,14.40
2022-10-20T17:15:53.622Z,14.40
2022-10-20T17:18:20.735Z,14.30
2022-10-20T17:20:51.943Z,14.30
2022-10-20T17:23:18.987Z,14.30
2022-10-20T17:25:45.986Z,14.30
2022-10-20T17:28:13.018Z,14.30
2022-10-20T17:30:40.707Z,14.30
2022-10-20T17:33:08.648Z,14.30
2022-10-20T17:35:35.786Z,14.20
2022-10-20T17:38:04.553Z,14.20
2022-10-20T17:40:37.963Z,14.20
2022-10-20T17:43:04.988Z,14.10
2022-10-20T17:45:34.951Z,14.20
2022-10-20T17:48:04.689Z,14.20
2022-10-20T17:50:31.720Z,14.20
2022-10-20T17:52:59.335Z,14.10
2022-10-20T17:55:26.363Z,14.10
2022-10-20T17:57:53.406Z,14.10
2022-10-20T18:00:31.666Z,14.10
2022-10-20T18:03:07.618Z,14.10
2022-10-20T18:05:37.707Z,14.00
2022-10-20T18:08:04.835Z,14.00
2022-10-20T18:10:31.834Z,14.00
2022-10-20T18:12:59.137Z,14.00
2022-10-20T18:15:26.166Z,14.00
2022-10-20T18:17:53.177Z,14.00
2022-10-20T18:20:21.271Z,14.00
2022-10-20T18:22:48.282Z,13.90
2022-10-20T18:25:15.299Z,13.80
2022-10-20T18:27:42.302Z,13.80
2022-10-20T18:30:09.580Z,13.80
2022-10-20T18:32:37.141Z,13.70
2022-10-20T18:35:04.384Z,13.70
2022-10-20T18:37:31.414Z,13.70
2022-10-20T18:39:59.293Z,13.70
2022-10-20T18:42:26.308Z,13.70
2022-10-20T18:44:53.374Z,13.60
2022-10-20T18:47:20.387Z,13.60
2022-10-20T18:49:47.435Z,13.60
2022-10-20T18:52:14.438Z,13.60
2022-10-20T18:54:41.454Z,13.60
2022-10-20T18:57:08.476Z,13.50
2022-10-20T18:59:35.529Z,13.60
2022-10-20T19:02:02.546Z,13.50
2022-10-20T19:04:29.567Z,13.50
2022-10-20T19:06:56.574Z,13.50
2022-10-20T19:09:23.654Z,13.50
2022-10-20T19:14:22.701Z,13.50
2022-10-20T19:16:50.117Z,13.50
2022-10-20T19:19:17.307Z,13.50
2022-10-20T19:21:44.350Z,13.50
2022-10-20T19:24:19.005Z,13.40
2022-10-20T19:26:57.033Z,13.40
2022-10-20T19:29:29.587Z,13.40
2022-10-20T19:31:57.327Z,13.40
2022-10-20T19:34:31.416Z,13.40
2022-10-20T19:36:58.527Z,13.40
2022-10-20T19:39:27.297Z,13.40
2022-10-20T19:41:54.846Z,13.40
2022-10-20T19:44:21.860Z,13.40
2022-10-20T19:46:49.225Z,13.40
2022-10-20T19:49:16.233Z,13.40
2022-10-20T19:51:43.296Z,13.30
2022-10-20T19:54:10.562Z,13.30
2022-10-20T19:56:37.714Z,13.30
2022-10-20T19:59:04.912Z,13.30
2022-10-20T20:01:32.062Z,13.30
2022-10-20T20:03:59.802Z,13.30
2022-10-20T20:06:28.431Z,13.20
2022-10-20T20:08:58.683Z,13.20
2022-10-20T20:11:30.565Z,13.20
2022-10-20T20:14:01.383Z,13.20
2022-10-20T20:16:28.559Z,13.10
2022-10-20T20:18:55.649Z,13.10
2022-10-20T20:21:22.900Z,13.10
2022-10-20T20:24:01.190Z,13.10
2022-10-20T20:26:28.898Z,13.10
2022-10-20T20:28:56.046Z,13.00
2022-10-20T20:31:23.226Z,12.90
2022-10-20T20:33:50.283Z,12.90
2022-10-20T20:36:17.339Z,12.80
2022-10-20T20:38:44.350Z,12.80
2022-10-20T20:41:12.603Z,12.80
2022-10-20T20:43:40.817Z,12.80
2022-10-20T20:46:10.387Z,12.80
2022-10-20T20:48:37.495Z,12.80
2022-10-20T20:51:04.650Z,12.70
2022-10-20T20:53:34.650Z,12.60
2022-10-20T20:56:02.462Z,12.50
2022-10-20T20:58:29.919Z,12.40
2022-10-20T21:01:00.815Z,12.30
2022-10-20T21:03:29.065Z,12.20
2022-10-20T21:05:56.106Z,12.20
2022-10-20T21:08:23.200Z,12.20
2022-10-20T21:10:50.186Z,12.20
2022-10-20T21:13:17.241Z,12.20
2022-10-20T21:15:44.237Z,12.10
2022-10-20T21:18:11.259Z,12.00
2022-10-20T21:20:38.262Z,12.00
2022-10-20T21:23:05.281Z,12.00
2022-10-20T21:25:32.303Z,12.00
2022-10-20T21:27:59.311Z,12.00
2022-10-20T21:30:27.121Z,12.00
2022-10-20T21:32:54.174Z,11.90
2022-10-20T21:35:21.182Z,11.90
2022-10-20T21:37:48.224Z,11.80
2022-10-20T21:40:15.262Z,11.90
2022-10-20T21:42:42.331Z,11.90
2022-10-20T21:45:09.477Z,11.90
2022-10-20T21:47:36.490Z,11.90
2022-10-20T21:50:03.586Z,11.90
2022-10-20T21:52:30.614Z,11.90
2022-10-20T21:54:57.616Z,11.90
2022-10-20T21:57:24.650Z,11.90
2022-10-20T21:59:51.658Z,11.90
2022-10-20T22:02:18.715Z,11.90
2022-10-20T22:04:45.861Z,11.90
2022-10-20T22:07:12.905Z,11.80
2022-10-20T22:09:39.906Z,11.90
2022-10-20T22:12:06.995Z,11.90
2022-10-20T22:14:34.111Z,12.00
2022-10-20T22:17:01.204Z,11.90
